Blossom, Texas
Current Conditions -  °F | °C
As of 1:35 AM on Saturday 25 Oct 2014 (Local Time) from KPRX Reporting Station
Clear Clear  
Wind Chill: 17°   Ceiling: Unl
Heat Index: 17°   Visibility: 10mi
Dew Point: 12°   Wind: 6mph
Humidity: 72%   Direction: 180°S
Pressure: 30.12"   Gusts: NA
Location:  33.66°N, 95.39°W
Report Text: KPRX 250635Z 18005KT 10SM CLR 17/12 A3012 RMK AO1
Loading
Personal Weather Stations






























Interactive Weather Map
Tropical Storm Tracking
New forecast layout! Learn more

10-Day Weather Forecast

Advertisements
Track Severe Weather on mobile